M I D A S
Marine Information and Data Acquisition System
Tripno 1512 of the Zeeleeuw from 2008-06-27 07:43:53 to 2008-06-27 10:21:05
Back to CruiseResearch ActivitiesStationsMapUnderway DataData graphs

EquipmentUnitsComment
TimeDGPSUTC
LatitudeDGPSDM.mWGS84
LongitudeDGPSDM.mWGS84
HeadingGyrodeg 
SOGDGPSknotsSpeed over ground
COGDGPSdegCourse over ground
DepthEcho soundermeters200 kHz
Missing or incorrect values are displayed as -999
Navigation data collected by the RV Zeeleeuw from 2008-06-27 07:43:57 to 2008-06-27 10:23:23
                                                                                    Next 1000 lines
Time Latitude Longitude Heading SOG COG Depth
2008-06-27 07:44:07 51°13.622 2°56.049 117 0.2 187 -999
2008-06-27 07:44:12 51°13.621 2°56.049 114.8 0.2 197 -999
2008-06-27 07:44:17 51°13.621 2°56.049 112.8 0.2 194 -999
2008-06-27 07:44:22 51°13.621 2°56.049 110.6 0.2 208 -999
2008-06-27 07:44:27 51°13.621 2°56.049 108.4 0.3 252 -999
2008-06-27 07:44:32 51°13.621 2°56.048 107 0.4 277 -999
2008-06-27 07:44:37 51°13.621 2°56.046 106.1 0.6 279 -999
2008-06-27 07:44:42 51°13.621 2°56.045 105.7 0.7 282 -999
2008-06-27 07:44:47 51°13.622 2°56.042 105.7 1.1 286 -999
2008-06-27 07:44:52 51°13.622 2°56.039 105.9 1.4 286 -999
2008-06-27 07:44:57 51°13.623 2°56.035 106.3 1.9 286 -999
2008-06-27 07:45:02 51°13.624 2°56.03 106.9 2.3 287 -999
2008-06-27 07:45:07 51°13.625 2°56.025 107.4 2.7 287 -999
2008-06-27 07:45:12 51°13.626 2°56.018 108 3 289 -999
2008-06-27 07:45:17 51°13.628 2°56.011 108.4 3.3 288 -999
2008-06-27 07:45:22 51°13.63 2°56.004 108.8 3.6 289 -999
2008-06-27 07:45:27 51°13.632 2°55.996 109.3 3.8 289 -999
2008-06-27 07:45:32 51°13.633 2°55.988 110 4 290 -999
2008-06-27 07:45:37 51°13.635 2°55.979 111 4.1 290 -999
2008-06-27 07:45:42 51°13.638 2°55.97 112.4 4.2 292 -999
2008-06-27 07:45:47 51°13.64 2°55.961 114.1 4.4 293 -999
2008-06-27 07:45:52 51°13.643 2°55.952 115.6 4.5 295 -999
2008-06-27 07:45:57 51°13.645 2°55.943 117.2 4.7 296 -999
2008-06-27 07:46:02 51°13.649 2°55.934 118.8 4.8 298 -999
2008-06-27 07:46:07 51°13.652 2°55.924 120.4 4.9 299 -999
2008-06-27 07:46:12 51°13.656 2°55.915 121.9 5 301 -999
2008-06-27 07:46:17 51°13.659 2°55.905 123.3 5 301 -999
2008-06-27 07:46:22 51°13.663 2°55.896 124.3 5 304 -999
2008-06-27 07:46:27 51°13.667 2°55.887 125 5.1 304 -999
2008-06-27 07:46:32 51°13.671 2°55.878 125.2 5.1 305 -999
2008-06-27 07:46:37 51°13.675 2°55.869 125.3 4.7 305 -999
2008-06-27 07:46:42 51°13.679 2°55.861 125.4 4.6 305 -999
2008-06-27 07:46:47 51°13.682 2°55.853 125.1 4.6 305 -999
2008-06-27 07:46:52 51°13.686 2°55.844 124.9 4.7 304 -999
2008-06-27 07:46:57 51°13.69 2°55.835 124 4.8 304 -999
2008-06-27 07:47:02 51°13.694 2°55.826 123 4.9 304 -999
2008-06-27 07:47:07 51°13.697 2°55.817 121.6 5 302 -999
2008-06-27 07:47:12 51°13.701 2°55.808 120.1 4.7 301 -999
2008-06-27 07:47:17 51°13.704 2°55.8 118.7 4.4 300 -999
2008-06-27 07:47:22 51°13.707 2°55.792 117.5 4.1 300 -999
2008-06-27 07:47:27 51°13.709 2°55.784 116.1 4 299 -999
2008-06-27 07:47:32 51°13.712 2°55.777 115.1 3.8 297 -999
2008-06-27 07:47:37 51°13.714 2°55.77 113.4 3.6 297 -999
2008-06-27 07:47:42 51°13.716 2°55.763 112.3 3.4 296 -999
2008-06-27 07:47:47 51°13.718 2°55.757 111.5 3.1 295 -999
2008-06-27 07:47:52 51°13.719 2°55.751 110.5 2.7 293 -999
2008-06-27 07:47:58 51°13.721 2°55.745 108 2.5 293 -999
2008-06-27 07:48:02 51°13.722 2°55.742 106.3 2.2 292 -999
2008-06-27 07:48:07 51°13.723 2°55.737 104.8 1.9 292 -999
2008-06-27 07:48:12 51°13.724 2°55.734 103.7 1.6 294 14.3
2008-06-27 07:48:17 51°13.724 2°55.732 102.1 1.1 295 14
2008-06-27 07:48:22 51°13.725 2°55.731 99.1 0.6 302 13.7
2008-06-27 07:48:27 51°13.725 2°55.73 95.7 0.3 346 -999
2008-06-27 07:48:32 51°13.726 2°55.731 91.3 0.5 41 13.6
2008-06-27 07:48:37 51°13.726 2°55.733 87.1 0.8 56 13.6
2008-06-27 07:48:42 51°13.727 2°55.735 82.8 1.1 58 13.6
2008-06-27 07:48:47 51°13.728 2°55.737 77.1 1.3 59 -999
2008-06-27 07:48:52 51°13.729 2°55.739 69.8 1.3 54 13.8
2008-06-27 07:48:57 51°13.73 2°55.741 64.3 1 52 14
2008-06-27 07:49:02 51°13.73 2°55.741 61.2 0.5 49 4.8
2008-06-27 07:49:07 51°13.73 2°55.741 57.5 0.1 317 -999
2008-06-27 07:49:12 51°13.73 2°55.74 54.1 0.5 236 -999
2008-06-27 07:49:17 51°13.729 2°55.739 51.1 1 228 14.1
2008-06-27 07:49:22 51°13.728 2°55.737 49.3 1.4 229 13.9
2008-06-27 07:49:27 51°13.726 2°55.734 48.1 1.8 226 13.7
2008-06-27 07:49:32 51°13.724 2°55.731 47.4 1.9 227 13.6
2008-06-27 07:49:37 51°13.723 2°55.729 46.8 1.7 226 -999
2008-06-27 07:49:42 51°13.721 2°55.726 46.7 1.6 228 -999
2008-06-27 07:49:47 51°13.72 2°55.724 46.6 1.5 230 -999
2008-06-27 07:49:52 51°13.719 2°55.722 46.5 1 228 -999
2008-06-27 07:49:57 51°13.719 2°55.721 44.7 0.4 240 -999
2008-06-27 07:50:02 51°13.719 2°55.721 41.4 0.2 345 -999
2008-06-27 07:50:07 51°13.72 2°55.721 38 0.7 16 -999
2008-06-27 07:50:12 51°13.721 2°55.722 32.9 1.2 21 13.6
2008-06-27 07:50:17 51°13.724 2°55.723 28.1 1.9 18 -999
2008-06-27 07:50:22 51°13.727 2°55.723 19.1 2.4 10 -999
2008-06-27 07:50:27 51°13.731 2°55.724 9.4 3 4 -999
2008-06-27 07:50:32 51°13.736 2°55.723 2.8 3.4 353 -999
2008-06-27 07:50:37 51°13.741 2°55.721 354 3.8 348 -999
2008-06-27 07:50:42 51°13.746 2°55.718 345.4 3.9 339 13.5
2008-06-27 07:50:47 51°13.751 2°55.714 339.1 4.2 335 13.4
2008-06-27 07:50:52 51°13.757 2°55.709 333.9 4.7 330 -999
2008-06-27 07:50:57 51°13.763 2°55.703 330.4 5.3 331 13.2
2008-06-27 07:51:02 51°13.77 2°55.697 328.7 5.8 329 13
2008-06-27 07:51:07 51°13.778 2°55.69 328.6 6.3 329 12.9
2008-06-27 07:51:12 51°13.786 2°55.683 329.3 6.6 329 11.6
2008-06-27 07:51:17 51°13.794 2°55.674 329.4 7 328 12.3
2008-06-27 07:51:22 51°13.803 2°55.666 328.6 7.3 328 13
2008-06-27 07:51:27 51°13.812 2°55.657 328.2 7.7 329 12.9
2008-06-27 07:51:32 51°13.821 2°55.648 328.5 7.9 330 12.7
2008-06-27 07:51:37 51°13.831 2°55.639 329.9 8.1 332 12.7
2008-06-27 07:51:42 51°13.841 2°55.631 332.3 8.2 334 13
2008-06-27 07:51:47 51°13.851 2°55.623 334.7 8.2 334 13
2008-06-27 07:51:52 51°13.862 2°55.616 335.3 8.1 335 13
2008-06-27 07:51:57 51°13.872 2°55.608 335.6 7.9 335 12.9
2008-06-27 07:52:02 51°13.881 2°55.602 336.4 7.7 337 12.9
2008-06-27 07:52:07 51°13.891 2°55.595 337.4 7.5 337 -999
2008-06-27 07:52:12 51°13.9 2°55.589 337.6 7.4 336 13
2008-06-27 07:52:17 51°13.91 2°55.582 337.6 7.3 337 13
2008-06-27 07:52:22 51°13.919 2°55.576 337.9 7.2 337 13
2008-06-27 07:52:27 51°13.928 2°55.57 338 7.1 338 13
2008-06-27 07:52:32 51°13.937 2°55.565 338.2 7 338 -999
2008-06-27 07:52:37 51°13.946 2°55.559 338.5 6.9 338 -999
2008-06-27 07:52:42 51°13.955 2°55.553 338.6 6.9 338 13
2008-06-27 07:52:47 51°13.964 2°55.548 338.4 6.8 338 13
2008-06-27 07:52:52 51°13.972 2°55.542 338.5 6.8 338 13
2008-06-27 07:52:57 51°13.981 2°55.537 338.7 6.7 339 13
2008-06-27 07:53:02 51°13.989 2°55.531 339 6.7 338 13
2008-06-27 07:53:07 51°13.998 2°55.526 338.9 6.6 339 13
2008-06-27 07:53:12 51°14.006 2°55.52 338.5 6.6 338 -999
2008-06-27 07:53:17 51°14.015 2°55.515 338.3 6.6 339 -999
2008-06-27 07:53:22 51°14.023 2°55.51 338.6 6.5 338 -999
2008-06-27 07:53:27 51°14.032 2°55.504 338.4 6.5 338 13
2008-06-27 07:53:32 51°14.04 2°55.499 338.3 6.5 338 13
2008-06-27 07:53:37 51°14.048 2°55.494 338.3 6.5 338 12.9
2008-06-27 07:53:42 51°14.057 2°55.488 338.3 6.5 337 12.9
2008-06-27 07:53:47 51°14.065 2°55.482 338.2 6.5 337 13
2008-06-27 07:53:52 51°14.073 2°55.477 337.8 6.5 337 13
2008-06-27 07:53:57 51°14.081 2°55.471 337.4 6.4 337 12.9
2008-06-27 07:54:02 51°14.09 2°55.466 337.4 6.4 337 12.9
2008-06-27 07:54:07 51°14.098 2°55.46 337 6.4 336 12.9
2008-06-27 07:54:12 51°14.106 2°55.454 336.3 6.4 334 12.9
2008-06-27 07:54:17 51°14.114 2°55.447 334.5 6.4 333 12.9
2008-06-27 07:54:22 51°14.122 2°55.441 332.4 6.4 332 12.9
2008-06-27 07:54:27 51°14.129 2°55.434 331.2 6.4 330 12.9
2008-06-27 07:54:32 51°14.137 2°55.426 330 6.4 329 12.9
2008-06-27 07:54:37 51°14.144 2°55.419 328.7 6.4 328 12.9
2008-06-27 07:54:42 51°14.152 2°55.411 327.3 6.6 327 -999
2008-06-27 07:54:47 51°14.16 2°55.402 326.1 6.9 325 12.9
2008-06-27 07:54:52 51°14.168 2°55.393 324.6 7.1 324 12.9
2008-06-27 07:54:57 51°14.176 2°55.383 323.8 7.3 323 -999
2008-06-27 07:55:02 51°14.184 2°55.373 322.2 7.5 321 12.9
2008-06-27 07:55:07 51°14.192 2°55.362 321 7.6 321 -999
2008-06-27 07:55:12 51°14.201 2°55.351 320.5 7.8 320 -999
2008-06-27 07:55:17 51°14.209 2°55.34 319.6 7.9 319 12.9
2008-06-27 07:55:22 51°14.217 2°55.328 318.8 8 317 12.9
2008-06-27 07:55:27 51°14.225 2°55.315 317.1 8.2 315 12.9
2008-06-27 07:55:32 51°14.233 2°55.302 315.7 8.4 315 12.9
2008-06-27 07:55:37 51°14.241 2°55.288 315.2 8.5 314 12.9
2008-06-27 07:55:42 51°14.25 2°55.274 314.5 8.6 313 12.9
2008-06-27 07:55:47 51°14.258 2°55.26 313.1 8.7 312 12.8
2008-06-27 07:55:52 51°14.266 2°55.245 312.9 8.8 313 12.4
2008-06-27 07:55:57 51°14.274 2°55.23 312.7 8.9 311 12.4
2008-06-27 07:56:02 51°14.282 2°55.215 311.8 8.9 312 12.4
2008-06-27 07:56:07 51°14.29 2°55.2 311.9 9 311 12.5
2008-06-27 07:56:12 51°14.298 2°55.185 311.6 9 310 12.6
2008-06-27 07:56:17 51°14.307 2°55.17 311.2 9.1 310 12.3
2008-06-27 07:56:22 51°14.315 2°55.154 311 9.4 310 12.3
2008-06-27 07:56:27 51°14.324 2°55.137 311.2 9.7 309 12.7
2008-06-27 07:56:32 51°14.333 2°55.12 310.9 10 310 12.6
2008-06-27 07:56:37 51°14.342 2°55.103 310.7 10.3 311 12.8
2008-06-27 07:56:42 51°14.352 2°55.086 312.2 10.6 312 12.9
2008-06-27 07:56:47 51°14.362 2°55.067 312.6 10.9 312 13.3
2008-06-27 07:56:52 51°14.373 2°55.05 313.1 11.2 314 13.2
2008-06-27 07:56:57 51°14.383 2°55.031 314 11.2 313 12.7
2008-06-27 07:57:02 51°14.395 2°55.014 314.5 11.4 317 12.9
2008-06-27 07:57:07 51°14.407 2°54.997 316.4 11.6 318 12.2
2008-06-27 07:57:12 51°14.42 2°54.981 318.5 11.5 322 12.4
2008-06-27 07:57:17 51°14.432 2°54.966 319.9 11.5 323 12.6
2008-06-27 07:57:23 51°14.448 2°54.949 322.1 11.6 326 12.7
2008-06-27 07:57:27 51°14.459 2°54.938 323.6 11.6 327 12.3
2008-06-27 07:57:32 51°14.473 2°54.924 325.4 11.7 329 12.3
2008-06-27 07:57:37 51°14.486 2°54.91 326.5 11.7 327 12.1
2008-06-27 07:57:42 51°14.5 2°54.896 324.8 11.6 328 11.9
2008-06-27 07:57:47 51°14.514 2°54.883 325.1 11.6 328 12.1
2008-06-27 07:57:52 51°14.528 2°54.87 325.3 11.6 329 11.8
2008-06-27 07:57:57 51°14.542 2°54.857 325.4 11.7 329 11.9
2008-06-27 07:58:02 51°14.555 2°54.843 325.1 11.6 328 11.8
2008-06-27 07:58:07 51°14.569 2°54.829 325.1 11.6 327 11.6
2008-06-27 07:58:12 51°14.583 2°54.815 324.9 11.7 328 11.6
2008-06-27 07:58:17 51°14.597 2°54.802 324.9 11.8 328 11.6
2008-06-27 07:58:22 51°14.611 2°54.788 325.1 11.8 328 11.5
2008-06-27 07:58:27 51°14.625 2°54.774 325.6 11.8 329 11.5
2008-06-27 07:58:32 51°14.639 2°54.761 326.6 11.8 329 11.5
2008-06-27 07:58:37 51°14.653 2°54.747 326.5 11.7 328 11.4
2008-06-27 07:58:42 51°14.667 2°54.734 325.7 11.7 328 11.6
2008-06-27 07:58:47 51°14.68 2°54.72 325.8 11.8 328 11.7
2008-06-27 07:58:52 51°14.694 2°54.706 325.6 11.8 328 11.6
2008-06-27 07:58:57 51°14.708 2°54.692 325 11.8 327 11.6
2008-06-27 07:59:02 51°14.722 2°54.678 324.8 11.8 327 11.6
2008-06-27 07:59:07 51°14.735 2°54.664 324.5 11.8 327 11.6
2008-06-27 07:59:12 51°14.749 2°54.65 324.7 11.8 328 11.5
2008-06-27 07:59:17 51°14.763 2°54.636 325.1 11.8 328 11.8
2008-06-27 07:59:22 51°14.777 2°54.621 325.4 11.8 326 11.7
2008-06-27 07:59:27 51°14.791 2°54.607 325.1 11.8 328 11.6
2008-06-27 07:59:32 51°14.805 2°54.594 325.6 11.8 329 11.8
2008-06-27 07:59:37 51°14.819 2°54.58 326.2 11.7 328 11.4
2008-06-27 07:59:42 51°14.832 2°54.566 326.3 11.8 327 11.5
2008-06-27 07:59:47 51°14.846 2°54.552 325.8 11.8 328 11.3
2008-06-27 07:59:52 51°14.86 2°54.539 326.2 11.7 328 11.5
2008-06-27 07:59:57 51°14.874 2°54.525 326.9 11.7 328 11.5
2008-06-27 08:00:02 51°14.888 2°54.512 326.8 11.7 329 11.4
2008-06-27 08:00:07 51°14.902 2°54.498 326.7 11.8 329 11.5
2008-06-27 08:00:12 51°14.916 2°54.486 327.2 11.7 332 11.1
2008-06-27 08:00:17 51°14.931 2°54.474 328.1 11.8 332 11.2
2008-06-27 08:00:22 51°14.945 2°54.461 328.8 11.7 332 10.9
2008-06-27 08:00:27 51°14.959 2°54.449 328.8 11.8 332 10.9
2008-06-27 08:00:32 51°14.974 2°54.436 329 11.8 331 10.7
2008-06-27 08:00:37 51°14.988 2°54.424 328.9 11.8 331 10.3
2008-06-27 08:00:42 51°15.002 2°54.411 328.9 11.8 330 10.5
2008-06-27 08:00:47 51°15.016 2°54.398 328.7 11.8 330 10.7
2008-06-27 08:00:52 51°15.031 2°54.386 328 11.9 331 10.4
2008-06-27 08:00:57 51°15.045 2°54.373 328.7 11.8 331 10.3
2008-06-27 08:01:02 51°15.059 2°54.361 328.9 11.7 332 10.4
2008-06-27 08:01:07 51°15.073 2°54.348 328.9 11.5 330 10.7
2008-06-27 08:01:12 51°15.087 2°54.335 328.3 11.6 330 10.6
2008-06-27 08:01:17 51°15.101 2°54.322 328.5 11.7 330 10.6
2008-06-27 08:01:22 51°15.115 2°54.309 328 11.6 329 10.3
2008-06-27 08:01:27 51°15.129 2°54.297 327.9 11.7 331 10.6
2008-06-27 08:01:32 51°15.144 2°54.284 328.7 11.8 331 10.7
2008-06-27 08:01:37 51°15.158 2°54.271 329.2 11.7 330 10.8
2008-06-27 08:01:42 51°15.172 2°54.258 328.6 11.8 331 11
2008-06-27 08:01:47 51°15.186 2°54.246 328.6 11.7 331 10.9
2008-06-27 08:01:52 51°15.2 2°54.232 329.1 11.7 329 11.2
2008-06-27 08:01:57 51°15.215 2°54.22 328.3 11.8 331 10.8
2008-06-27 08:02:02 51°15.229 2°54.208 328.6 11.8 331 11.1
2008-06-27 08:02:07 51°15.243 2°54.195 329.4 11.7 331 11.2
2008-06-27 08:02:12 51°15.257 2°54.182 328.9 11.7 330 11.1
2008-06-27 08:02:17 51°15.271 2°54.17 328.6 11.7 330 11.3
2008-06-27 08:02:22 51°15.286 2°54.157 328 11.8 331 11.2
2008-06-27 08:02:27 51°15.3 2°54.144 328.3 11.8 330 11.1
2008-06-27 08:02:32 51°15.314 2°54.131 328.7 11.9 330 11.3
2008-06-27 08:02:37 51°15.328 2°54.118 328.8 11.7 330 11.1
2008-06-27 08:02:42 51°15.343 2°54.105 329.3 11.8 331 11.4
2008-06-27 08:02:47 51°15.357 2°54.092 329.5 11.8 329 11.4
2008-06-27 08:02:52 51°15.371 2°54.079 327.5 11.8 331 11.5
2008-06-27 08:02:57 51°15.385 2°54.066 328.4 11.8 330 11.4
2008-06-27 08:03:02 51°15.399 2°54.053 328.7 11.8 330 11.6
2008-06-27 08:03:07 51°15.413 2°54.039 328.5 11.8 328 11.6
2008-06-27 08:03:12 51°15.428 2°54.026 327.9 11.9 331 11.4
2008-06-27 08:03:17 51°15.441 2°54.012 328.7 11.9 329 11.6
2008-06-27 08:03:22 51°15.456 2°54 328.6 11.9 330 11.9
2008-06-27 08:03:27 51°15.47 2°53.987 329.1 11.9 330 11.8
2008-06-27 08:03:32 51°15.484 2°53.973 329.3 11.9 330 11.9
2008-06-27 08:03:37 51°15.499 2°53.96 328.8 11.9 330 12.1
2008-06-27 08:03:42 51°15.513 2°53.947 328.9 11.8 329 12.1
2008-06-27 08:03:47 51°15.527 2°53.934 328.4 11.8 330 12.1
2008-06-27 08:03:52 51°15.541 2°53.921 328.7 11.9 330 12.2
2008-06-27 08:03:57 51°15.555 2°53.907 328.3 11.9 329 12.1
2008-06-27 08:04:02 51°15.57 2°53.894 328.3 11.9 331 12.3
2008-06-27 08:04:07 51°15.584 2°53.88 329.4 11.9 328 12.2
2008-06-27 08:04:12 51°15.598 2°53.867 328.3 11.9 330 12.2
2008-06-27 08:04:17 51°15.612 2°53.854 328.6 11.9 330 12.1
2008-06-27 08:04:22 51°15.627 2°53.841 329 11.8 330 12.5
2008-06-27 08:04:27 51°15.641 2°53.829 329 11.8 331 12.8
2008-06-27 08:04:32 51°15.655 2°53.816 329.4 11.9 331 12.5
2008-06-27 08:04:37 51°15.67 2°53.803 329.4 11.9 330 12.5
2008-06-27 08:04:43 51°15.687 2°53.788 328.8 11.8 330 12.6
2008-06-27 08:04:47 51°15.698 2°53.777 329 11.9 329 12.6
2008-06-27 08:04:52 51°15.713 2°53.764 328.7 11.9 330 12.4
2008-06-27 08:04:57 51°15.727 2°53.751 328.7 11.9 330 12.6
2008-06-27 08:05:02 51°15.741 2°53.737 328.6 11.9 329 12.5
2008-06-27 08:05:07 51°15.756 2°53.724 328.4 11.9 331 12.7
2008-06-27 08:05:12 51°15.77 2°53.711 328.7 11.8 329 12.7
2008-06-27 08:05:17 51°15.784 2°53.698 328.4 11.9 331 13
2008-06-27 08:05:22 51°15.798 2°53.685 328.6 11.8 329 12.6
2008-06-27 08:05:27 51°15.812 2°53.671 328.5 11.8 329 12.6
2008-06-27 08:05:32 51°15.826 2°53.658 327.5 11.8 329 12.9
2008-06-27 08:05:37 51°15.84 2°53.645 327.4 11.8 330 12.8
2008-06-27 08:05:42 51°15.855 2°53.631 328.1 11.9 329 12.9
2008-06-27 08:05:47 51°15.869 2°53.618 328 11.8 330 12.8
2008-06-27 08:05:52 51°15.883 2°53.606 328 11.8 331 13
2008-06-27 08:05:57 51°15.897 2°53.592 328.4 11.9 329 13.2
2008-06-27 08:06:02 51°15.912 2°53.579 328.1 11.9 330 13
2008-06-27 08:06:07 51°15.926 2°53.566 327.8 11.9 330 13.2
2008-06-27 08:06:12 51°15.941 2°53.554 328.2 12 332 13.3
2008-06-27 08:06:17 51°15.955 2°53.54 328.9 11.9 330 13
2008-06-27 08:06:22 51°15.969 2°53.528 329 11.9 331 13.1
2008-06-27 08:06:27 51°15.984 2°53.515 328.7 11.9 330 13.2
2008-06-27 08:06:32 51°15.998 2°53.502 328.7 12 332 13.2
2008-06-27 08:06:37 51°16.013 2°53.489 329.2 12 330 13.1
2008-06-27 08:06:42 51°16.027 2°53.477 328.8 12 332 13.2
2008-06-27 08:06:47 51°16.042 2°53.464 329.4 12 332 13.1
2008-06-27 08:06:52 51°16.057 2°53.452 329.9 11.9 332 13.1
2008-06-27 08:06:57 51°16.071 2°53.439 329.9 12 332 13.3
2008-06-27 08:07:02 51°16.086 2°53.427 329.8 11.9 332 13.2
2008-06-27 08:07:07 51°16.1 2°53.414 329.4 11.8 331 13.3
2008-06-27 08:07:12 51°16.114 2°53.401 329 11.8 331 13.4
2008-06-27 08:07:17 51°16.129 2°53.388 328.5 11.7 331 13.4
2008-06-27 08:07:22 51°16.143 2°53.376 328.1 11.6 331 13
2008-06-27 08:07:27 51°16.157 2°53.364 328.5 11.7 330 13.4
2008-06-27 08:07:32 51°16.171 2°53.35 328.5 11.8 329 13.4
2008-06-27 08:07:37 51°16.185 2°53.337 328.1 11.8 330 13.3
2008-06-27 08:07:42 51°16.199 2°53.324 328 11.9 330 13.4
2008-06-27 08:07:47 51°16.214 2°53.311 327.9 11.7 330 13.3
2008-06-27 08:07:52 51°16.227 2°53.298 327.9 11.7 329 13.6
2008-06-27 08:07:57 51°16.242 2°53.285 327.3 11.7 330 13.4
2008-06-27 08:08:02 51°16.256 2°53.271 327 11.7 330 13.7
2008-06-27 08:08:07 51°16.27 2°53.258 327.3 11.7 330 13.5
2008-06-27 08:08:12 51°16.284 2°53.245 327.7 11.7 330 13.5
2008-06-27 08:08:17 51°16.298 2°53.232 327.9 11.7 329 13.7
2008-06-27 08:08:22 51°16.312 2°53.219 327.7 11.8 330 13.5
2008-06-27 08:08:27 51°16.326 2°53.206 327.8 11.8 329 13.6
2008-06-27 08:08:32 51°16.341 2°53.193 327.7 11.8 331 13.5
2008-06-27 08:08:37 51°16.354 2°53.181 328.6 11.5 331 13.2
2008-06-27 08:08:42 51°16.368 2°53.169 328.7 11.5 332 13.6
2008-06-27 08:08:47 51°16.383 2°53.157 328.7 11.7 332 13.6
2008-06-27 08:08:52 51°16.397 2°53.144 329.1 11.7 331 13.2
2008-06-27 08:08:57 51°16.411 2°53.132 329.4 11.7 331 13.4
2008-06-27 08:09:02 51°16.426 2°53.119 329.1 11.8 331 13.4
2008-06-27 08:09:07 51°16.44 2°53.107 329 11.8 331 13.5
2008-06-27 08:09:12 51°16.454 2°53.094 328.4 11.8 330 13.8
2008-06-27 08:09:17 51°16.468 2°53.08 327.6 11.8 329 13.5
2008-06-27 08:09:22 51°16.482 2°53.067 327.2 11.9 330 13.6
2008-06-27 08:09:27 51°16.497 2°53.054 327.5 11.9 331 13.5
2008-06-27 08:09:32 51°16.511 2°53.04 328.2 11.8 330 13.4
2008-06-27 08:09:37 51°16.525 2°53.027 327.6 11.9 330 13.7
2008-06-27 08:09:42 51°16.539 2°53.014 327.5 11.9 329 13.5
2008-06-27 08:09:47 51°16.553 2°53.001 327.2 11.7 330 13.6
2008-06-27 08:09:52 51°16.568 2°52.988 327 11.8 330 13.6
2008-06-27 08:09:57 51°16.582 2°52.975 327.3 11.8 331 13.3
2008-06-27 08:10:02 51°16.597 2°52.963 328.7 11.9 332 13.5
2008-06-27 08:10:07 51°16.611 2°52.951 329.7 11.9 333 13.5
2008-06-27 08:10:12 51°16.626 2°52.94 331.4 11.9 334 13.3
2008-06-27 08:10:17 51°16.641 2°52.928 332 12 335 13.2
2008-06-27 08:10:22 51°16.656 2°52.917 332.6 12 335 12.9
2008-06-27 08:10:27 51°16.672 2°52.906 333.2 12 336 13
2008-06-27 08:10:32 51°16.687 2°52.895 333.5 11.9 335 13
2008-06-27 08:10:37 51°16.702 2°52.884 333 11.9 336 12.9
2008-06-27 08:10:42 51°16.717 2°52.873 333.3 12 336 12.8
2008-06-27 08:10:47 51°16.732 2°52.862 333.1 12 336 12.6
2008-06-27 08:10:52 51°16.747 2°52.851 333.8 12 335 12.4
2008-06-27 08:10:57 51°16.763 2°52.841 333.8 11.9 338 12.2
2008-06-27 08:11:02 51°16.778 2°52.831 334.4 11.9 338 12
2008-06-27 08:11:07 51°16.793 2°52.821 334.9 11.8 337 11.3
2008-06-27 08:11:12 51°16.808 2°52.81 334.6 11.9 336 11.5
2008-06-27 08:11:17 51°16.823 2°52.8 334 11.8 336 11.4
2008-06-27 08:11:23 51°16.841 2°52.787 334 11.8 337 11.5
2008-06-27 08:11:27 51°16.854 2°52.779 333.7 11.9 338 11
2008-06-27 08:11:32 51°16.869 2°52.768 334.5 11.9 336 10.9
2008-06-27 08:11:37 51°16.884 2°52.758 334 11.9 337 11
2008-06-27 08:11:42 51°16.899 2°52.747 334 12 336 11
2008-06-27 08:11:47 51°16.914 2°52.736 334.2 12 336 11.2
2008-06-27 08:11:52 51°16.929 2°52.725 334.3 12 336 11.4
2008-06-27 08:11:57 51°16.944 2°52.715 333.8 12 337 11.2
2008-06-27 08:12:02 51°16.96 2°52.704 334.2 12.1 336 11.2
2008-06-27 08:12:07 51°16.975 2°52.695 334.5 12 337 11.3
2008-06-27 08:12:12 51°16.991 2°52.685 335.1 12 338 11.7
2008-06-27 08:12:17 51°17.006 2°52.674 335.9 11.9 338 11.9
2008-06-27 08:12:22 51°17.021 2°52.665 336.3 11.9 339 11.9
2008-06-27 08:12:27 51°17.037 2°52.655 336.6 11.8 338 11.7
2008-06-27 08:12:32 51°17.052 2°52.646 336.7 12 340 12
2008-06-27 08:12:37 51°17.067 2°52.635 337.2 12 337 11.7
2008-06-27 08:12:42 51°17.083 2°52.625 336.7 12.1 339 11.5
2008-06-27 08:12:47 51°17.098 2°52.615 336.7 11.9 339 11.3
2008-06-27 08:12:52 51°17.114 2°52.606 336.7 12 339 11.6
2008-06-27 08:12:57 51°17.129 2°52.597 336.8 11.8 340 11.4
2008-06-27 08:13:02 51°17.144 2°52.587 337.7 11.9 338 11.3
2008-06-27 08:13:07 51°17.16 2°52.579 337.7 11.9 341 11.3
2008-06-27 08:13:12 51°17.176 2°52.57 338.8 12.1 341 11.5
2008-06-27 08:13:17 51°17.192 2°52.562 339.4 12 342 11.1
2008-06-27 08:13:23 51°17.211 2°52.551 340.1 12 341 11.4
2008-06-27 08:13:27 51°17.224 2°52.546 340.3 12.1 344 11.4
2008-06-27 08:13:32 51°17.24 2°52.538 340.9 12.1 343 11.5
2008-06-27 08:13:37 51°17.256 2°52.533 342 12.1 349 11.5
2008-06-27 08:13:42 51°17.273 2°52.527 345.4 12.1 346 11.5
2008-06-27 08:13:47 51°17.289 2°52.524 346.8 12.1 353 12
2008-06-27 08:13:52 51°17.306 2°52.52 348.5 12.1 354 11.8
2008-06-27 08:13:57 51°17.322 2°52.518 351.2 12.1 355 12
2008-06-27 08:14:02 51°17.339 2°52.517 353.4 12.2 358 12.2
2008-06-27 08:14:07 51°17.357 2°52.516 356.4 12.3 359 11.8
2008-06-27 08:14:12 51°17.374 2°52.517 357.9 12.3 1 12
2008-06-27 08:14:17 51°17.391 2°52.518 359.2 12.3 1 12.1
2008-06-27 08:14:22 51°17.408 2°52.52 1.2 12.3 5 11.7
2008-06-27 08:14:27 51°17.425 2°52.521 2.8 12.2 3 11.8
2008-06-27 08:14:32 51°17.442 2°52.526 3.5 12.4 8 12
2008-06-27 08:14:37 51°17.459 2°52.525 4.6 12.3 1 12.1
2008-06-27 08:14:42 51°17.476 2°52.53 3.9 12.4 9 11.6
2008-06-27 08:14:47 51°17.493 2°52.53 5.6 12.3 2 12.1
2008-06-27 08:14:52 51°17.51 2°52.532 3.5 12.3 3 11.9
2008-06-27 08:14:57 51°17.526 2°52.535 2.2 12.2 6 11.9
2008-06-27 08:15:02 51°17.544 2°52.535 4.1 12.2 1 12.1
2008-06-27 08:15:07 51°17.561 2°52.536 2.1 12.3 1 12.2
2008-06-27 08:15:12 51°17.578 2°52.536 0.7 12.3 1 12.1
2008-06-27 08:15:17 51°17.595 2°52.539 1.4 12.5 5 12
2008-06-27 08:15:22 51°17.612 2°52.537 1.4 12.3 358 11.8
2008-06-27 08:15:27 51°17.629 2°52.539 0.7 12.3 3 12.2
2008-06-27 08:15:32 51°17.646 2°52.539 0.6 12.4 -999 11.9
2008-06-27 08:15:37 51°17.663 2°52.539 0.5 12.2 359 12.2
2008-06-27 08:15:42 51°17.68 2°52.541 359.8 12.3 5 12.1
2008-06-27 08:15:47 51°17.697 2°52.539 1.5 12.3 357 12.1
2008-06-27 08:15:52 51°17.715 2°52.542 0.3 12.4 5 11.8
2008-06-27 08:15:57 51°17.732 2°52.541 1.4 12.3 356 11.9
2008-06-27 08:16:02 51°17.749 2°52.544 359 12.4 5 11.6
2008-06-27 08:16:07 51°17.766 2°52.542 1.4 12.4 358 11.9
2008-06-27 08:16:12 51°17.783 2°52.544 359.9 12.4 2 12
2008-06-27 08:16:17 51°17.8 2°52.543 0.4 12.3 -999 11.9
2008-06-27 08:16:22 51°17.817 2°52.544 0.8 12.3 -999 12.2
2008-06-27 08:16:27 51°17.834 2°52.545 359.9 12.4 3 11.8
2008-06-27 08:16:32 51°17.851 2°52.544 1.1 12.2 -999 12
2008-06-27 08:16:37 51°17.869 2°52.544 359.6 12.3 -999 12.4
2008-06-27 08:16:42 51°17.886 2°52.542 358.2 12.3 355 12.2
2008-06-27 08:16:47 51°17.902 2°52.542 357 12.3 1 12.1
2008-06-27 08:16:52 51°17.919 2°52.54 358.1 12.3 355 12
2008-06-27 08:16:57 51°17.936 2°52.539 356.4 12.3 357 12.4
2008-06-27 08:17:02 51°17.954 2°52.536 356.2 12.5 355 12.3
2008-06-27 08:17:07 51°17.971 2°52.535 355.5 12.5 356 12.2
2008-06-27 08:17:12 51°17.988 2°52.533 355.4 12.4 357 12.4
2008-06-27 08:17:17 51°18.005 2°52.532 356.3 12.6 357 12.3
2008-06-27 08:17:22 51°18.023 2°52.529 356.1 12.5 356 12.5
2008-06-27 08:17:27 51°18.04 2°52.529 355.6 12.6 359 12.4
2008-06-27 08:17:32 51°18.057 2°52.526 356.7 12.5 354 12.1
2008-06-27 08:17:37 51°18.074 2°52.526 355.9 12.4 359 12.3
2008-06-27 08:17:42 51°18.092 2°52.523 356.3 12.5 354 12.4
2008-06-27 08:17:47 51°18.109 2°52.523 355 12.5 358 12.2
2008-06-27 08:17:52 51°18.126 2°52.519 356.3 12.5 353 12.4
2008-06-27 08:17:57 51°18.143 2°52.518 354.7 12.3 358 12.2
2008-06-27 08:18:02 51°18.16 2°52.516 355.6 12.5 357 12.4
2008-06-27 08:18:07 51°18.177 2°52.514 356.1 12.5 356 12.3
2008-06-27 08:18:12 51°18.195 2°52.513 355.2 12.4 357 12.6
2008-06-27 08:18:17 51°18.212 2°52.511 355.6 12.4 357 12.4
2008-06-27 08:18:22 51°18.229 2°52.509 355.9 12.4 355 12.6
2008-06-27 08:18:27 51°18.246 2°52.509 355.4 12.5 359 12.6
2008-06-27 08:18:32 51°18.264 2°52.506 357.4 12.5 355 12.5
2008-06-27 08:18:37 51°18.281 2°52.506 356.5 12.4 359 12.7
2008-06-27 08:18:42 51°18.298 2°52.504 357.7 12.5 356 12.7
2008-06-27 08:18:47 51°18.316 2°52.503 356.5 12.4 358 12.5
2008-06-27 08:18:52 51°18.333 2°52.502 357.7 12.5 1 12.7
2008-06-27 08:18:57 51°18.351 2°52.5 358.5 12.5 357 12.6
2008-06-27 08:19:02 51°18.368 2°52.502 358.1 12.5 -999 12.5
2008-06-27 08:19:07 51°18.384 2°52.501 357.9 12.4 357 12.9
2008-06-27 08:19:12 51°18.402 2°52.502 357.7 12.5 -999 12.6
2008-06-27 08:19:17 51°18.419 2°52.499 357 12.3 356 12.7
2008-06-27 08:19:22 51°18.436 2°52.499 357.8 12.4 358 12.9
2008-06-27 08:19:27 51°18.453 2°52.497 355.7 12.5 358 12.9
2008-06-27 08:19:32 51°18.471 2°52.496 357 12.5 358 12.8
2008-06-27 08:19:37 51°18.488 2°52.495 356.4 12.4 -999 13
2008-06-27 08:19:42 51°18.505 2°52.494 359.2 12.4 356 13.1
2008-06-27 08:19:47 51°18.522 2°52.494 356.6 12.5 -999 13
2008-06-27 08:19:52 51°18.54 2°52.492 357.7 12.5 357 13.2
2008-06-27 08:19:57 51°18.557 2°52.491 357.1 12.4 -999 13.2
2008-06-27 08:20:02 51°18.574 2°52.491 357.6 12.5 359 13.4
2008-06-27 08:20:07 51°18.592 2°52.489 358 12.5 356 13.5
2008-06-27 08:20:12 51°18.609 2°52.489 356.7 12.5 -999 13.2
2008-06-27 08:20:17 51°18.626 2°52.487 357.9 12.4 357 13.4
2008-06-27 08:20:22 51°18.643 2°52.489 357.7 12.4 1 13.3
2008-06-27 08:20:27 51°18.661 2°52.487 358.3 12.4 358 13.4
2008-06-27 08:20:32 51°18.678 2°52.49 358.4 12.4 4 13.1
2008-06-27 08:20:37 51°18.695 2°52.491 1.5 12.4 2 13.2
2008-06-27 08:20:42 51°18.712 2°52.494 2.6 12.4 5 13.4
2008-06-27 08:20:47 51°18.729 2°52.497 3.8 12.6 7 13.2
2008-06-27 08:20:52 51°18.747 2°52.499 5.7 12.5 5 13.5
2008-06-27 08:20:57 51°18.764 2°52.503 5.1 12.6 9 13.5
2008-06-27 08:21:02 51°18.781 2°52.505 7.1 12.6 3 13.7
2008-06-27 08:21:07 51°18.798 2°52.51 5.4 12.5 11 13.7
2008-06-27 08:21:12 51°18.816 2°52.512 7.8 12.5 5 13.9
2008-06-27 08:21:17 51°18.833 2°52.515 6.6 12.5 7 13.9
2008-06-27 08:21:22 51°18.85 2°52.518 6.4 12.6 5 14.1
2008-06-27 08:21:27 51°18.867 2°52.52 5.5 12.5 5 14.1
2008-06-27 08:21:32 51°18.885 2°52.522 4.7 12.6 4 14.2
2008-06-27 08:21:37 51°18.902 2°52.524 4.3 12.5 4 14.2
2008-06-27 08:21:42 51°18.92 2°52.527 4.3 12.6 5 14.1
2008-06-27 08:21:47 51°18.937 2°52.529 4.4 12.5 4 14.1
2008-06-27 08:21:52 51°18.954 2°52.532 4.1 12.5 8 14.3
2008-06-27 08:21:57 51°18.971 2°52.533 5 12.4 2 14.5
2008-06-27 08:22:02 51°18.988 2°52.537 3.4 12.4 7 14.1
2008-06-27 08:22:07 51°19.005 2°52.539 4.9 12.5 6 14.3
2008-06-27 08:22:12 51°19.023 2°52.54 4.9 12.2 2 14.2
2008-06-27 08:22:17 51°19.04 2°52.543 3 12.4 6 14.5
2008-06-27 08:22:22 51°19.057 2°52.545 4.3 12.4 4 14.6
2008-06-27 08:22:27 51°19.074 2°52.548 3.9 12.3 7 14.8
2008-06-27 08:22:32 51°19.091 2°52.551 4.6 12.3 6 14.8
2008-06-27 08:22:37 51°19.108 2°52.554 5.1 12.3 6 14.8
2008-06-27 08:22:42 51°19.125 2°52.557 4.6 12.2 7 14.9
2008-06-27 08:22:47 51°19.142 2°52.559 4.8 12.2 5 15.1
2008-06-27 08:22:52 51°19.158 2°52.561 3.7 12 6 15.2
2008-06-27 08:22:57 51°19.174 2°52.564 3.6 11.7 5 15.4
2008-06-27 08:23:02 51°19.19 2°52.567 3.5 11.2 6 15.3
2008-06-27 08:23:07 51°19.204 2°52.569 3.6 10.5 6 15.3
2008-06-27 08:23:12 51°19.218 2°52.571 3.6 9.9 5 15.5
2008-06-27 08:23:17 51°19.23 2°52.573 3.1 9.2 3 15.4
2008-06-27 08:23:22 51°19.242 2°52.572 0.3 8.4 359 15.5
2008-06-27 08:23:27 51°19.252 2°52.569 355.7 7.6 353 15.8
2008-06-27 08:23:32 51°19.261 2°52.566 349.1 6.8 345 15.8
2008-06-27 08:23:37 51°19.27 2°52.562 341.9 6.3 342 15.6
2008-06-27 08:23:42 51°19.277 2°52.557 335.2 5.7 336 15.6
2008-06-27 08:23:47 51°19.284 2°52.552 328 5.2 330 15.8
2008-06-27 08:23:52 51°19.289 2°52.545 321 4.9 324 15.8
2008-06-27 08:23:57 51°19.294 2°52.539 314.4 4.4 319 15.7
2008-06-27 08:24:02 51°19.297 2°52.532 307.8 4 313 16
2008-06-27 08:24:07 51°19.3 2°52.525 301.3 3.7 303 16.1
2008-06-27 08:24:12 51°19.302 2°52.518 295.1 3.5 296 16.1
2008-06-27 08:24:17 51°19.304 2°52.511 288 3.4 292 16.1
2008-06-27 08:24:22 51°19.305 2°52.504 282 3.3 283 16.2
2008-06-27 08:24:27 51°19.305 2°52.497 275.9 3.4 277 16.2
2008-06-27 08:24:32 51°19.306 2°52.489 271.3 3.3 272 16
2008-06-27 08:24:37 51°19.305 2°52.482 266.9 3.3 266 16.2
2008-06-27 08:24:42 51°19.305 2°52.475 262.9 3.3 264 16.3
2008-06-27 08:24:47 51°19.304 2°52.467 259.9 3.5 261 16.3
2008-06-27 08:24:52 51°19.303 2°52.459 258.3 3.6 259 16.1
2008-06-27 08:24:57 51°19.302 2°52.452 257.3 3.6 259 16.2
2008-06-27 08:25:02 51°19.301 2°52.444 257.3 3.7 259 16.2
2008-06-27 08:25:07 51°19.301 2°52.436 257.4 3.7 262 16
2008-06-27 08:25:12 51°19.3 2°52.427 259 3.7 264 16.1
2008-06-27 08:25:17 51°19.301 2°52.419 262.8 3.7 273 16.3
2008-06-27 08:25:22 51°19.301 2°52.411 267.8 3.7 276 16.1
2008-06-27 08:25:27 51°19.302 2°52.403 271.5 3.6 281 16.3
2008-06-27 08:25:32 51°19.304 2°52.396 275 3.6 283 16.4
2008-06-27 08:25:37 51°19.305 2°52.388 277.6 3.7 285 16.4
2008-06-27 08:25:42 51°19.306 2°52.38 279.3 3.8 288 16.5
2008-06-27 08:25:47 51°19.308 2°52.371 280.8 3.8 287 16.6
2008-06-27 08:25:52 51°19.31 2°52.363 281.8 3.9 288 16.5
2008-06-27 08:25:57 51°19.311 2°52.355 282.5 3.8 288 16.6
2008-06-27 08:26:02 51°19.313 2°52.347 281.9 3.8 287 16.7
2008-06-27 08:26:07 51°19.314 2°52.339 280.3 3.7 283 16.6
2008-06-27 08:26:12 51°19.315 2°52.331 277 3.7 277 16.5
2008-06-27 08:26:17 51°19.315 2°52.323 273.2 3.5 273 16.5
2008-06-27 08:26:22 51°19.315 2°52.315 268.9 3.6 269 16.7
2008-06-27 08:26:27 51°19.314 2°52.307 263.9 3.7 262 16.6
2008-06-27 08:26:32 51°19.313 2°52.299 260.1 3.6 260 16.6
2008-06-27 08:26:37 51°19.312 2°52.291 257.6 3.5 257 16.7
2008-06-27 08:26:42 51°19.311 2°52.284 255.3 3.5 256 16.6
2008-06-27 08:26:47 51°19.31 2°52.276 254.9 3.5 260 16.6
2008-06-27 08:26:52 51°19.309 2°52.269 256.5 3.3 261 16.5
2008-06-27 08:26:57 51°19.309 2°52.262 259.7 3.1 267 16.4
2008-06-27 08:27:03 51°19.309 2°52.254 263 2.8 266 16.5
2008-06-27 08:27:07 51°19.309 2°52.249 265.4 2.7 270 16.7
2008-06-27 08:27:12 51°19.309 2°52.244 267.3 2.5 268 16.7
2008-06-27 08:27:17 51°19.309 2°52.239 268.7 2.3 274 16.8
2008-06-27 08:27:22 51°19.309 2°52.234 269.2 2.1 270 16.7
2008-06-27 08:27:27 51°19.309 2°52.229 269.2 2 274 16.9
2008-06-27 08:27:32 51°19.309 2°52.225 269.6 1.9 271 16.8
2008-06-27 08:27:37 51°19.309 2°52.221 270.1 1.9 279 16.8
2008-06-27 08:27:42 51°19.309 2°52.218 270.6 1.7 275 16.7
2008-06-27 08:27:47 51°19.31 2°52.214 271 1.6 281 16.7
2008-06-27 08:27:52 51°19.31 2°52.211 271.4 1.4 282 16.6
2008-06-27 08:27:57 51°19.311 2°52.208 271.7 1.3 283 16.8
2008-06-27 08:28:02 51°19.311 2°52.205 272.1 1.2 286 16.9
2008-06-27 08:28:07 51°19.311 2°52.203 272.8 1.2 283 16.7
2008-06-27 08:28:12 51°19.312 2°52.2 272.8 1.1 282 16.8
2008-06-27 08:28:17 51°19.312 2°52.199 272.3 1 282 16.8
2008-06-27 08:28:22 51°19.312 2°52.197 271.5 0.9 275 16.9
2008-06-27 08:28:27 51°19.313 2°52.195 270.4 0.9 288 16.8
2008-06-27 08:28:32 51°19.313 2°52.193 269 0.8 282 16.8
2008-06-27 08:28:37 51°19.313 2°52.191 267.9 0.5 277 16.8
2008-06-27 08:28:42 51°19.313 2°52.191 266.3 0.3 273 16.9
2008-06-27 08:28:47 51°19.313 2°52.19 264.6 0.4 245 16.7
2008-06-27 08:28:52 51°19.313 2°52.189 262.7 0.3 260 16.6
2008-06-27 08:28:57 51°19.313 2°52.189 261.5 0.3 235 16.7
2008-06-27 08:29:03 51°19.313 2°52.188 260.2 0.1 271 16.8
2008-06-27 08:29:07 51°19.312 2°52.188 258.7 0.2 161 16.9
2008-06-27 08:29:12 51°19.312 2°52.188 257.6 0.3 137 16.9
2008-06-27 08:29:17 51°19.312 2°52.189 256.1 0.2 110 16.8
2008-06-27 08:29:22 51°19.312 2°52.189 254.7 0.2 143 16.7
2008-06-27 08:29:27 51°19.311 2°52.189 253.4 0.2 141 16.8
2008-06-27 08:29:32 51°19.311 2°52.19 252.2 0.4 137 16.7
2008-06-27 08:29:37 51°19.311 2°52.19 251 0.3 134 16.8
2008-06-27 08:29:42 51°19.311 2°52.191 249.7 0.3 147 16.9
2008-06-27 08:29:47 51°19.31 2°52.191 248.7 0.2 162 16.8
2008-06-27 08:29:52 51°19.309 2°52.191 247.5 0.5 173 16.8
2008-06-27 08:29:57 51°19.309 2°52.19 246.7 0.5 202 16.7
2008-06-27 08:30:02 51°19.308 2°52.19 245.4 0.6 194 16.6
2008-06-27 08:30:07 51°19.307 2°52.19 244.1 0.6 199 17
2008-06-27 08:30:12 51°19.306 2°52.189 242.3 0.7 204 16.9
2008-06-27 08:30:17 51°19.305 2°52.188 240.9 0.9 212 16.8
2008-06-27 08:30:22 51°19.304 2°52.187 240 1 215 16.6
2008-06-27 08:30:27 51°19.303 2°52.186 239.2 1.1 215 16.7
2008-06-27 08:30:32 51°19.302 2°52.184 238.4 1.1 226 16.7
2008-06-27 08:30:37 51°19.3 2°52.182 238.7 1.3 219 16.7
2008-06-27 08:30:42 51°19.299 2°52.18 239.6 1.3 224 16.6
2008-06-27 08:30:47 51°19.298 2°52.179 240.1 1.3 220 16.5
2008-06-27 08:30:52 51°19.296 2°52.177 240.7 1.4 228 16.5
2008-06-27 08:30:57 51°19.295 2°52.175 241.6 1.5 221 16.4
2008-06-27 08:31:02 51°19.294 2°52.173 242.1 1.4 223 16.6
2008-06-27 08:31:07 51°19.292 2°52.171 242.7 1.4 223 16.5
2008-06-27 08:31:12 51°19.291 2°52.168 243 1.4 226 16.6
2008-06-27 08:31:17 51°19.29 2°52.166 243.6 1.5 230 16.6
2008-06-27 08:31:23 51°19.288 2°52.163 244.3 1.6 221 16.5
2008-06-27 08:31:27 51°19.287 2°52.161 244.6 1.5 226 16.8
2008-06-27 08:31:32 51°19.285 2°52.158 244.5 1.4 221 16.6
2008-06-27 08:31:37 51°19.284 2°52.156 244.3 1.3 226 16.9
2008-06-27 08:31:42 51°19.283 2°52.155 244.3 1.2 223 17
2008-06-27 08:31:47 51°19.282 2°52.153 244.3 1.1 225 16.7
2008-06-27 08:31:52 51°19.281 2°52.151 244.5 1 219 16.7
2008-06-27 08:31:57 51°19.28 2°52.15 244.6 0.9 223 16.8
2008-06-27 08:32:02 51°19.279 2°52.149 244.3 0.9 219 16.8
2008-06-27 08:32:07 51°19.278 2°52.148 244.5 0.7 222 16.8
2008-06-27 08:32:12 51°19.277 2°52.147 244.6 0.8 208 16.8
2008-06-27 08:32:17 51°19.276 2°52.146 244.5 0.7 216 16.5
2008-06-27 08:32:22 51°19.275 2°52.145 244.1 0.7 211 16.6
2008-06-27 08:32:27 51°19.275 2°52.144 244.1 0.7 222 16.6
2008-06-27 08:32:32 51°19.274 2°52.143 244.1 0.7 213 16.6
2008-06-27 08:32:37 51°19.273 2°52.143 244.2 0.6 214 16.7
2008-06-27 08:32:42 51°19.272 2°52.142 244.5 0.6 210 16.7
2008-06-27 08:32:47 51°19.272 2°52.141 244.5 0.6 223 16.7
2008-06-27 08:32:52 51°19.271 2°52.141 244.9 0.6 204 16.6
2008-06-27 08:32:57 51°19.27 2°52.14 245.1 0.4 198 16.7
2008-06-27 08:33:02 51°19.27 2°52.14 245.2 0.4 193 16.8
2008-06-27 08:33:07 51°19.269 2°52.14 245.6 0.5 189 16.7
2008-06-27 08:33:12 51°19.268 2°52.14 245.6 0.5 173 16.6
2008-06-27 08:33:17 51°19.268 2°52.14 246.1 0.4 161 16.6
2008-06-27 08:33:23 51°19.267 2°52.141 245.1 0.5 170 16.5
2008-06-27 08:33:27 51°19.266 2°52.141 244 0.4 174 16.3
2008-06-27 08:33:32 51°19.266 2°52.141 243.5 0.6 165 16.3
2008-06-27 08:33:37 51°19.265 2°52.142 242.9 0.4 162 16.6
2008-06-27 08:33:42 51°19.265 2°52.142 242.7 0.4 168 16.5
2008-06-27 08:33:47 51°19.264 2°52.142 242.5 0.4 171 16.6
2008-06-27 08:33:52 51°19.263 2°52.142 242.3 0.4 170 16.6
2008-06-27 08:33:57 51°19.263 2°52.142 242.1 0.5 162 16.6
2008-06-27 08:34:02 51°19.262 2°52.143 241.9 0.3 156 16.7
2008-06-27 08:34:07 51°19.262 2°52.143 241.9 0.3 154 16.8
2008-06-27 08:34:12 51°19.261 2°52.143 241.6 0.5 158 16.6
2008-06-27 08:34:17 51°19.26 2°52.144 241.5 0.5 163 16.4
2008-06-27 08:34:22 51°19.26 2°52.144 241.2 0.5 158 16.4
2008-06-27 08:34:27 51°19.26 2°52.144 241 0.3 160 16.5
2008-06-27 08:34:32 51°19.259 2°52.144 241.3 0.4 172 16.6
2008-06-27 08:34:37 51°19.258 2°52.144 241.7 0.4 180 16.5
2008-06-27 08:34:42 51°19.258 2°52.145 242.5 0.4 168 16.6
2008-06-27 08:34:47 51°19.257 2°52.145 242.6 0.4 155 16.6
2008-06-27 08:34:52 51°19.257 2°52.146 242.7 0.4 149 16.7
2008-06-27 08:34:57 51°19.256 2°52.146 242.5 0.4 156 16.7
2008-06-27 08:35:02 51°19.256 2°52.146 242.5 0.4 159 16.6
2008-06-27 08:35:07 51°19.255 2°52.146 242.3 0.4 154 16.6
2008-06-27 08:35:12 51°19.255 2°52.147 242.1 0.2 151 16.6
2008-06-27 08:35:17 51°19.254 2°52.147 242.1 0.4 156 16.6
2008-06-27 08:35:22 51°19.253 2°52.147 242 0.5 158 16.6
2008-06-27 08:35:27 51°19.253 2°52.148 242.3 0.6 160 16.5
2008-06-27 08:35:32 51°19.252 2°52.149 242.4 0.6 151 16.4
2008-06-27 08:35:38 51°19.252 2°52.149 242.2 0.2 147 16.5
2008-06-27 08:35:42 51°19.251 2°52.149 241.6 0.5 158 16.5
2008-06-27 08:35:47 51°19.251 2°52.149 241.6 0.4 167 16.5
2008-06-27 08:35:52 51°19.25 2°52.15 242.3 0.5 163 16.4
2008-06-27 08:35:57 51°19.25 2°52.15 242 0.4 154 16.5
2008-06-27 08:36:02 51°19.249 2°52.151 242.5 0.3 152 16.6
2008-06-27 08:36:07 51°19.248 2°52.151 242.9 0.4 153 16.5
2008-06-27 08:36:12 51°19.248 2°52.151 243.6 0.4 158 16.4
2008-06-27 08:36:17 51°19.247 2°52.152 244.2 0.4 158 16.3
2008-06-27 08:36:23 51°19.247 2°52.152 244.7 0.3 160 16.4
2008-06-27 08:36:27 51°19.246 2°52.153 245.3 0.4 154 16.5
2008-06-27 08:36:32 51°19.246 2°52.153 245.9 0.3 148 16.3
2008-06-27 08:36:37 51°19.246 2°52.154 245.7 0.4 144 16.4
2008-06-27 08:36:42 51°19.245 2°52.154 246.1 0.3 136 16.4
2008-06-27 08:36:47 51°19.245 2°52.155 246.7 0.4 143 16.5
2008-06-27 08:36:52 51°19.245 2°52.155 247.1 0.3 129 16.5
2008-06-27 08:36:57 51°19.244 2°52.156 247.4 0.3 124 16.6
2008-06-27 08:37:02 51°19.244 2°52.156 247.9 0.3 133 16.6
2008-06-27 08:37:07 51°19.244 2°52.156 248.2 0.2 150 16.5
2008-06-27 08:37:12 51°19.243 2°52.157 248.8 0.3 149 16.3
2008-06-27 08:37:17 51°19.243 2°52.158 249.3 0.3 129 16.3
2008-06-27 08:37:22 51°19.243 2°52.158 249.9 0.3 136 16.3
2008-06-27 08:37:27 51°19.243 2°52.159 249.5 0.4 116 16.2
2008-06-27 08:37:32 51°19.242 2°52.16 249.6 0.3 122 16.5
2008-06-27 08:37:37 51°19.242 2°52.16 249.5 0.4 138 16.5
2008-06-27 08:37:42 51°19.242 2°52.161 249.8 0.3 142 16.4
2008-06-27 08:37:47 51°19.241 2°52.161 249.8 0.4 137 16.4
2008-06-27 08:37:52 51°19.241 2°52.162 249.8 0.3 105 16.4
2008-06-27 08:37:57 51°19.241 2°52.163 250.8 0.4 108 16.5
2008-06-27 08:38:02 51°19.241 2°52.164 251.3 0.4 109 16.5
2008-06-27 08:38:07 51°19.24 2°52.164 251.8 0.4 133 16.5
2008-06-27 08:38:12 51°19.24 2°52.165 252.1 0.2 124 16.5
2008-06-27 08:38:17 51°19.24 2°52.166 252.3 0.3 125 16.4
2008-06-27 08:38:23 51°19.24 2°52.167 252.7 0.3 105 16.4
2008-06-27 08:38:27 51°19.239 2°52.167 252.8 0.4 114 16.5
2008-06-27 08:38:32 51°19.239 2°52.168 252.8 0.3 118 16.5
2008-06-27 08:38:37 51°19.239 2°52.168 252.7 0.3 129 16.4
2008-06-27 08:38:43 51°19.239 2°52.169 252.9 0.3 129 16.3
2008-06-27 08:38:47 51°19.239 2°52.17 253.2 0.4 114 16.5
2008-06-27 08:38:52 51°19.238 2°52.17 253.4 0.4 124 16.5
2008-06-27 08:38:57 51°19.238 2°52.171 253.2 0.4 138 16.3
2008-06-27 08:39:02 51°19.238 2°52.172 252.5 0.3 118 16.2
2008-06-27 08:39:07 51°19.237 2°52.173 252.5 0.5 120 16.3
2008-06-27 08:39:12 51°19.237 2°52.173 252 0.4 111 16.4
2008-06-27 08:39:17 51°19.237 2°52.174 252 0.3 111 16.5
2008-06-27 08:39:22 51°19.237 2°52.175 252.2 0.2 97 16.4
2008-06-27 08:39:27 51°19.237 2°52.175 252.7 0.3 113 16.4
2008-06-27 08:39:32 51°19.237 2°52.176 253.4 0.3 96 16.5
2008-06-27 08:39:37 51°19.236 2°52.176 254 0.3 105 16.5
2008-06-27 08:39:42 51°19.236 2°52.177 254.6 0.2 116 16.4
2008-06-27 08:39:47 51°19.236 2°52.177 255.1 0.2 123 16.3
2008-06-27 08:39:52 51°19.236 2°52.178 255.6 0.2 110 16.3
2008-06-27 08:39:57 51°19.236 2°52.179 256.1 0.3 97 16.2
2008-06-27 08:40:02 51°19.236 2°52.18 256.7 0.4 103 16.3
2008-06-27 08:40:07 51°19.236 2°52.181 257.2 0.4 83 16.3
2008-06-27 08:40:12 51°19.236 2°52.181 257.6 0.4 103 16.3
2008-06-27 08:40:17 51°19.236 2°52.182 258.2 0.3 96 16.2
2008-06-27 08:40:22 51°19.236 2°52.183 258.9 0.4 113 16.2
2008-06-27 08:40:27 51°19.236 2°52.183 258.6 0.3 78 16.4
2008-06-27 08:40:32 51°19.236 2°52.184 258.9 0.2 76 16.4
2008-06-27 08:40:37 51°19.236 2°52.184 259.7 0.2 129 16.3
2008-06-27 08:40:42 51°19.236 2°52.184 260.9 0.1 92 16.4
2008-06-27 08:40:47 51°19.236 2°52.184 262.1 0.1 130 16.5
2008-06-27 08:40:52 51°19.236 2°52.184 263.3 -999 297 16.5
2008-06-27 08:40:57 51°19.236 2°52.184 264.5 0.1 246 16.5
2008-06-27 08:41:02 51°19.236 2°52.183 266 0.2 283 16.4
2008-06-27 08:41:07 51°19.236 2°52.183 267.7 0.3 284 16.4
2008-06-27 08:41:12 51°19.236 2°52.182 269.1 0.3 288 16.4
2008-06-27 08:41:17 51°19.236 2°52.181 270.4 0.4 291 16.3
2008-06-27 08:41:22 51°19.236 2°52.181 271.7 0.5 286 16.4
2008-06-27 08:41:27 51°19.237 2°52.18 273 0.5 300 16.3
2008-06-27 08:41:32 51°19.237 2°52.179 274.5 0.4 288 16.3
2008-06-27 08:41:37 51°19.237 2°52.178 275.7 0.5 309 16.3
2008-06-27 08:41:42 51°19.238 2°52.176 277.1 0.5 292 16.4
2008-06-27 08:41:47 51°19.238 2°52.175 278 0.6 313 16.3
2008-06-27 08:41:52 51°19.239 2°52.174 279.1 0.5 299 16.3
2008-06-27 08:41:57 51°19.239 2°52.173 280.6 0.6 326 16.3
2008-06-27 08:42:02 51°19.24 2°52.172 281.7 0.6 314 16.3
2008-06-27 08:42:07 51°19.24 2°52.172 282.7 0.6 319 16.3
2008-06-27 08:42:12 51°19.241 2°52.171 283.7 0.6 321 16.4
2008-06-27 08:42:17 51°19.242 2°52.17 284.7 0.7 335 16.4
2008-06-27 08:42:22 51°19.243 2°52.17 286.3 0.6 326 16.4
2008-06-27 08:42:27 51°19.243 2°52.169 287.9 0.6 334 16.3
2008-06-27 08:42:32 51°19.244 2°52.169 289.2 0.6 335 16.3
2008-06-27 08:42:37 51°19.245 2°52.168 290.3 0.6 336 16.3
2008-06-27 08:42:43 51°19.246 2°52.168 291.5 0.6 341 16.3
2008-06-27 08:42:47 51°19.247 2°52.167 292.4 0.7 345 16.4
2008-06-27 08:42:52 51°19.248 2°52.167 293.1 0.7 342 16.3
2008-06-27 08:42:57 51°19.248 2°52.167 294.2 0.6 341 16.3
2008-06-27 08:43:02 51°19.249 2°52.166 294.9 0.7 349 16.4
2008-06-27 08:43:07 51°19.25 2°52.166 295.5 0.5 337 16.4
2008-06-27 08:43:12 51°19.251 2°52.166 295.8 0.6 352 16.4
2008-06-27 08:43:17 51°19.252 2°52.165 295.8 0.5 352 16.5
2008-06-27 08:43:22 51°19.253 2°52.165 296.4 0.7 -999 16.4
2008-06-27 08:43:27 51°19.254 2°52.165 297.2 0.7 355 16.4
2008-06-27 08:43:32 51°19.255 2°52.165 297.8 0.7 -999 16.4
2008-06-27 08:43:37 51°19.256 2°52.164 298.6 0.6 356 16.4
2008-06-27 08:43:42 51°19.257 2°52.164 298.5 0.8 5 16.4
2008-06-27 08:43:47 51°19.258 2°52.164 298.7 0.7 356 16.4
2008-06-27 08:43:52 51°19.259 2°52.164 299.4 0.9 2 16.3
2008-06-27 08:43:57 51°19.26 2°52.164 300.2 0.7 356 16.5
2008-06-27 08:44:02 51°19.261 2°52.164 300.9 0.9 359 16.5
2008-06-27 08:44:07 51°19.262 2°52.164 301.6 0.8 359 16.6
2008-06-27 08:44:12 51°19.263 2°52.164 302.2 0.8 1 16.6
2008-06-27 08:44:17 51°19.265 2°52.165 302.7 1 4 16.6
2008-06-27 08:44:22 51°19.266 2°52.165 303.3 1 3 16.4
2008-06-27 08:44:27 51°19.267 2°52.165 304.8 1 3 16.4
2008-06-27 08:44:32 51°19.268 2°52.165 305.8 1 2 16.4
2008-06-27 08:44:37 51°19.269 2°52.165 306.3 0.9 2 16.3
2008-06-27 08:44:42 51°19.271 2°52.165 307 0.9 5 16.4
2008-06-27 08:44:47 51°19.272 2°52.165 307.6 0.8 6 16.6
2008-06-27 08:44:52 51°19.274 2°52.165 307.9 1.1 8 16.6
2008-06-27 08:44:57 51°19.275 2°52.165 308 1.1 4 16.5
2008-06-27 08:45:03 51°19.277 2°52.166 308.5 1.1 10 16.3
2008-06-27 08:45:07 51°19.277 2°52.166 309 0.8 5 16.3
2008-06-27 08:45:12 51°19.279 2°52.167 309.4 0.9 11 16.2
2008-06-27 08:45:17 51°19.28 2°52.167 309.1 0.9 14 16.3
2008-06-27 08:45:23 51°19.281 2°52.168 309.1 1 17 16.3
2008-06-27 08:45:27 51°19.282 2°52.168 309.4 0.9 18 16.4
2008-06-27 08:45:32 51°19.283 2°52.169 309.8 0.9 20 16.5
2008-06-27 08:45:37 51°19.285 2°52.169 309.9 0.9 17 16.5
2008-06-27 08:45:42 51°19.286 2°52.17 310.1 0.9 15 16.5
2008-06-27 08:45:47 51°19.287 2°52.17 310 0.9 18 16.5
2008-06-27 08:45:52 51°19.288 2°52.171 310 0.8 20 16.6
2008-06-27 08:45:57 51°19.289 2°52.172 309.8 0.9 23 16.7
2008-06-27 08:46:02 51°19.29 2°52.172 309.7 0.8 26 16.7
2008-06-27 08:46:07 51°19.291 2°52.173 309.8 0.9 36 16.7
2008-06-27 08:46:12 51°19.292 2°52.174 309.8 0.8 35 16.7
2008-06-27 08:46:17 51°19.294 2°52.176 310.3 0.9 31 16.4
2008-06-27 08:46:22 51°19.295 2°52.176 311 0.9 27 16.3
2008-06-27 08:46:27 51°19.296 2°52.178 311.3 1 31 16.2
2008-06-27 08:46:32 51°19.297 2°52.179 311.3 1 32 16.3
2008-06-27 08:46:37 51°19.298 2°52.18 311.7 0.9 34 16.3
2008-06-27 08:46:42 51°19.298 2°52.18 311.7 0.7 42 16.5
2008-06-27 08:46:47 51°19.299 2°52.182 311 0.9 40 16.6
2008-06-27 08:46:52 51°19.3 2°52.183 310.3 0.8 38 16.5
2008-06-27 08:46:57 51°19.301 2°52.184 310.1 0.9 38 16.6
2008-06-27 08:47:03 51°19.302 2°52.185 310 0.8 37 16.6
2008-06-27 08:47:07 51°19.303 2°52.186 309.7 0.8 39 16.6
2008-06-27 08:47:12 51°19.304 2°52.187 309.2 0.8 40 16.7
2008-06-27 08:47:17 51°19.305 2°52.188 308.5 0.9 41 16.7
2008-06-27 08:47:23 51°19.306 2°52.189 308.4 0.7 44 16.8
2008-06-27 08:47:27 51°19.307 2°52.19 307.9 0.9 42 16.7
2008-06-27 08:47:32 51°19.308 2°52.191 307 0.8 39 16.6
2008-06-27 08:47:37 51°19.308 2°52.192 306.1 0.8 36 16.5
2008-06-27 08:47:42 51°19.309 2°52.193 305.1 0.8 36 16.5
2008-06-27 08:47:47 51°19.31 2°52.194 304.4 0.7 35 16.6
2008-06-27 08:47:52 51°19.311 2°52.195 303.6 0.7 39 16.6
2008-06-27 08:47:57 51°19.312 2°52.196 302.5 0.7 33 16.7
2008-06-27 08:48:02 51°19.313 2°52.197 301.4 0.7 32 16.6
2008-06-27 08:48:07 51°19.314 2°52.198 300.6 0.7 33 16.6
2008-06-27 08:48:12 51°19.315 2°52.199 299.6 0.8 31 16.6
2008-06-27 08:48:17 51°19.316 2°52.199 298.5 0.7 22 16.5
2008-06-27 08:48:22 51°19.317 2°52.199 297.5 0.7 13 16.5
2008-06-27 08:48:27 51°19.318 2°52.2 296.3 0.7 15 16.3
2008-06-27 08:48:32 51°19.318 2°52.2 295.2 0.5 20 16.5
2008-06-27 08:48:37 51°19.319 2°52.201 293.3 0.5 14 16.6
2008-06-27 08:48:42 51°19.32 2°52.201 291 0.6 13 16.5
2008-06-27 08:48:47 51°19.321 2°52.201 288.8 0.5 11 16.5
2008-06-27 08:48:52 51°19.321 2°52.201 287.1 0.5 -999 16.5
2008-06-27 08:48:57 51°19.322 2°52.201 285.1 0.5 355 16.5
2008-06-27 08:49:02 51°19.323 2°52.202 283.2 0.5 358 16.5
2008-06-27 08:49:07 51°19.323 2°52.201 281.7 0.5 352 16.5
2008-06-27 08:49:12 51°19.324 2°52.201 280.2 0.5 343 16.5
2008-06-27 08:49:18 51°19.325 2°52.2 279 0.5 330 16.5
2008-06-27 08:49:23 51°19.326 2°52.2 277.9 0.7 333 16.6
2008-06-27 08:49:27 51°19.326 2°52.199 277.2 0.7 325 16.5
2008-06-27 08:49:32 51°19.327 2°52.198 276.7 0.6 316 16.6
2008-06-27 08:49:37 51°19.327 2°52.197 276.1 0.7 306 16.6
2008-06-27 08:49:42 51°19.328 2°52.195 275.2 0.8 305 16.5
2008-06-27 08:49:47 51°19.328 2°52.194 274 0.7 296 16.5
2008-06-27 08:49:52 51°19.329 2°52.192 273.1 0.7 284 16.5
2008-06-27 08:49:57 51°19.329 2°52.191 272.1 0.8 286 16.5
2008-06-27 08:50:02 51°19.329 2°52.189 270.3 0.8 278 16.5
2008-06-27 08:50:07 51°19.329 2°52.187 268.8 0.9 283 16.5
2008-06-27 08:50:12 51°19.329 2°52.185 267.6 0.8 273 16.6
2008-06-27 08:50:17 51°19.329 2°52.183 266.5 0.9 280 16.7
2008-06-27 08:50:22 51°19.329 2°52.181 265.7 0.9 272 16.6
2008-06-27 08:50:27 51°19.329 2°52.179 265.2 1 270 16.6
2008-06-27 08:50:32 51°19.33 2°52.176 264.5 1.1 273 16.5
2008-06-27 08:50:37 51°19.329 2°52.174 263.9 1.1 264 16.6
2008-06-27 08:50:42 51°19.329 2°52.171 262.8 1.2 264 16.6
2008-06-27 08:50:47 51°19.329 2°52.169 261.4 1.3 263 16.6
2008-06-27 08:50:52 51°19.329 2°52.166 259.9 1.2 256 16.5
2008-06-27 08:50:57 51°19.328 2°52.164 258.2 1.2 254 16.5
2008-06-27 08:51:02 51°19.328 2°52.161 256.1 1.2 256 16.6
2008-06-27 08:51:07 51°19.327 2°52.158 254.4 1.3 245 16.6
2008-06-27 08:51:12 51°19.326 2°52.156 252.6 1.3 246 16.6
2008-06-27 08:51:17 51°19.326 2°52.153 251.1 1.3 240 16.6
2008-06-27 08:51:23 51°19.324 2°52.15 249.5 1.4 244 16.6
2008-06-27 08:51:27 51°19.323 2°52.148 247.4 1.5 234 16.5
2008-06-27 08:51:32 51°19.323 2°52.145 245.6 1.5 246 16.4
2008-06-27 08:51:38 51°19.321 2°52.142 244.7 1.5 231 16.4
2008-06-27 08:51:42 51°19.32 2°52.139 243.7 1.4 239 16.6
2008-06-27 08:51:47 51°19.319 2°52.137 242.9 1.5 235 16.6
2008-06-27 08:51:52 51°19.317 2°52.134 242.3 1.6 231 16.5
2008-06-27 08:51:57 51°19.316 2°52.131 241.5 1.6 235 16.5
2008-06-27 08:52:02 51°19.315 2°52.128 241.1 1.6 230 16.6
2008-06-27 08:52:07 51°19.313 2°52.126 241 1.6 230 16.6
2008-06-27 08:52:12 51°19.312 2°52.123 240.7 1.6 229 16.6
2008-06-27 08:52:17 51°19.311 2°52.12 240.6 1.6 233 16.7
2008-06-27 08:52:22 51°19.309 2°52.117 240.2 1.7 237 16.6
2008-06-27 08:52:27 51°19.307 2°52.114 240.5 1.8 231 16.5
2008-06-27 08:52:32 51°19.306 2°52.111 241.3 1.7 229 16.4
2008-06-27 08:52:37 51°19.304 2°52.109 241.1 1.9 223 16.3
2008-06-27 08:52:42 51°19.302 2°52.106 239.6 1.8 224 16.1
2008-06-27 08:52:47 51°19.301 2°52.103 239 1.7 229 16.1
2008-06-27 08:52:52 51°19.299 2°52.101 239.3 1.8 226 16.2
2008-06-27 08:52:57 51°19.297 2°52.098 240.1 1.8 225 16.3
2008-06-27 08:53:02 51°19.296 2°52.095 241.2 1.7 228 16.5
2008-06-27 08:53:07 51°19.295 2°52.092 241.7 1.6 228 16.6
2008-06-27 08:53:12 51°19.293 2°52.089 242.7 1.6 237 16.7
2008-06-27 08:53:17 51°19.292 2°52.086 243.9 1.7 232 16.8
2008-06-27 08:53:22 51°19.291 2°52.083 245 1.6 239 16.7
2008-06-27 08:53:27 51°19.289 2°52.08 246 1.7 233 16.6
2008-06-27 08:53:32 51°19.288 2°52.077 247.7 1.6 241 16.6
2008-06-27 08:53:38 51°19.287 2°52.073 248.8 1.6 241 16.7
2008-06-27 08:53:42 51°19.286 2°52.071 249.8 1.5 242 16.6
2008-06-27 08:53:47 51°19.285 2°52.068 251 1.4 243 16.5
2008-06-27 08:53:52 51°19.285 2°52.066 252.2 1.2 241 16.5
2008-06-27 08:53:57 51°19.284 2°52.064 252.6 1.1 246 16.5
2008-06-27 08:54:02 51°19.283 2°52.061 253.2 1 249 16.4
2008-06-27 08:54:07 51°19.283 2°52.059 253.5 1 242 16.5
2008-06-27 08:54:12 51°19.282 2°52.058 254.2 0.9 246 16.5
2008-06-27 08:54:17 51°19.282 2°52.056 254.6 0.8 239 16.4
2008-06-27 08:54:23 51°19.281 2°52.054 255.1 0.8 248 16.5
2008-06-27 08:54:27 51°19.281 2°52.053 255.2 0.8 242 16.5
2008-06-27 08:54:32 51°19.281 2°52.051 255.3 0.8 245 16.4
2008-06-27 08:54:37 51°19.28 2°52.05 255.1 0.7 231 16.4
2008-06-27 08:54:42 51°19.28 2°52.049 254.9 0.6 251 16.4
2008-06-27 08:54:47 51°19.28 2°52.048 255.2 0.6 239 16.4
2008-06-27 08:54:52 51°19.279 2°52.047 254.8 0.6 243 16.5
2008-06-27 08:54:57 51°19.279 2°52.046 254.7 0.6 242 16.6
2008-06-27 08:55:02 51°19.278 2°52.044 254.7 0.6 238 16.5
2008-06-27 08:55:07 51°19.278 2°52.044 254.6 0.5 240 16.5
2008-06-27 08:55:12 51°19.278 2°52.043 254.5 0.5 224 16.4
2008-06-27 08:55:17 51°19.278 2°52.042 254.3 0.4 260 16.5
2008-06-27 08:55:22 51°19.277 2°52.042 254.5 0.4 212 16.6
2008-06-27 08:55:27 51°19.277 2°52.041 254.6 0.3 220 16.6
2008-06-27 08:55:32 51°19.276 2°52.04 253.9 0.3 222 16.4
2008-06-27 08:55:37 51°19.276 2°52.04 253.9 0.3 231 16.4
2008-06-27 08:55:42 51°19.276 2°52.039 253.9 0.3 219 16.4
2008-06-27 08:55:47 51°19.275 2°52.039 254.4 0.3 225 16.4
2008-06-27 08:55:52 51°19.275 2°52.039 253.9 0.3 197 16.5
2008-06-27 08:55:57 51°19.275 2°52.038 253.7 0.2 218 16.6
2008-06-27 08:56:02 51°19.275 2°52.038 253.3 0.1 174 16.6
2008-06-27 08:56:07 51°19.274 2°52.038 253.1 0.1 171 16.6
2008-06-27 08:56:12 51°19.274 2°52.038 252.4 0.2 174 16.7
2008-06-27 08:56:17 51°19.274 2°52.038 251.8 0.2 167 16.5
2008-06-27 08:56:23 51°19.273 2°52.038 251.5 0.3 158 16.5
2008-06-27 08:56:27 51°19.273 2°52.038 250.7 0.1 200 16.6
2008-06-27 08:56:32 51°19.273 2°52.038 250.1 0.2 166 16.4
2008-06-27 08:56:37 51°19.273 2°52.038 249.7 0.1 136 16.4
2008-06-27 08:56:43 51°19.272 2°52.039 249.5 0.3 138 16.6
2008-06-27 08:56:47 51°19.272 2°52.039 249 0.2 133 16.5
2008-06-27 08:56:52 51°19.272 2°52.039 248.8 0.4 152 16.4
2008-06-27 08:56:57 51°19.272 2°52.04 248.4 0.2 149 16.4
2008-06-27 08:57:03 51°19.271 2°52.04 248.4 0.3 136 16.3
2008-06-27 08:57:07 51°19.271 2°52.041 248.8 0.4 136 16.4
2008-06-27 08:57:12 51°19.271 2°52.041 248.6 0.3 126 16.6
2008-06-27 08:57:17 51°19.27 2°52.042 248.5 0.5 134 16.5
2008-06-27 08:57:22 51°19.27 2°52.043 247.8 0.4 121 16.4
2008-06-27 08:57:27 51°19.27 2°52.043 247.2 0.4 121 16.3
2008-06-27 08:57:32 51°19.27 2°52.044 246.5 0.4 111 16.4
2008-06-27 08:57:37 51°19.269 2°52.044 245.6 0.4 119 16.5
2008-06-27 08:57:42 51°19.269 2°52.045 244.8 0.3 103 16.5
2008-06-27 08:57:47 51°19.269 2°52.046 244 0.5 126 16.5
2008-06-27 08:57:52 51°19.269 2°52.047 243.1 0.4 112 16.5
2008-06-27 08:57:57 51°19.268 2°52.048 242.1 0.5 121 16.4
2008-06-27 08:58:02 51°19.268 2°52.049 240.7 0.4 113 16.4
2008-06-27 08:58:07 51°19.268 2°52.05 240 0.5 119 16.4
2008-06-27 08:58:12 51°19.267 2°52.051 239.3 0.5 120 16.4
2008-06-27 08:58:17 51°19.267 2°52.052 238.6 0.6 121 16.4
2008-06-27 08:58:22 51°19.267 2°52.052 237.6 0.4 104 16.6
2008-06-27 08:58:27 51°19.267 2°52.054 236.7 0.6 110 16.6
2008-06-27 08:58:32 51°19.266 2°52.055 235.8 0.6 109 16.6
2008-06-27 08:58:37 51°19.266 2°52.056 234.9 0.5 109 16.4
2008-06-27 08:58:43 51°19.266 2°52.057 233.6 0.5 106 16.4
2008-06-27 08:58:47 51°19.265 2°52.058 232.8 0.6 104 16.4
2008-06-27 08:58:52 51°19.265 2°52.06 231.9 0.8 108 16.5
2008-06-27 08:58:57 51°19.265 2°52.061 230.6 0.5 99 16.5
2008-06-27 08:59:03 51°19.264 2°52.063 228.7 0.6 112 16.3
2008-06-27 08:59:07 51°19.264 2°52.064 227.3 0.6 114 16.3
2008-06-27 08:59:12 51°19.264 2°52.066 226.4 0.8 116 16.3
2008-06-27 08:59:17 51°19.264 2°52.067 225.1 0.6 106 16.4
2008-06-27 08:59:22 51°19.263 2°52.068 223.9 0.8 117 16.5
2008-06-27 08:59:27 51°19.263 2°52.07 222.7 0.7 110 16.4
2008-06-27 08:59:32 51°19.263 2°52.071 221.5 0.8 111 16.5
2008-06-27 08:59:37 51°19.262 2°52.073 220.7 0.8 112 16.4
2008-06-27 08:59:42 51°19.262 2°52.074 219.1 0.8 108 16.4
2008-06-27 08:59:47 51°19.262 2°52.076 217.6 0.6 98 16.5
2008-06-27 08:59:52 51°19.262 2°52.077 216.2 0.6 101 16.5
2008-06-27 08:59:57 51°19.261 2°52.079 214.9 0.7 101 16.4
2008-06-27 09:00:02 51°19.261 2°52.08 213.7 0.8 106 16.4
2008-06-27 09:00:07 51°19.261 2°52.082 212.1 0.7 107 16.4
2008-06-27 09:00:12 51°19.26 2°52.084 210.7 0.9 108 16.3
2008-06-27 09:00:17 51°19.26 2°52.085 209.1 0.7 105 16.3
2008-06-27 09:00:22 51°19.26 2°52.086 207.2 0.7 104 16.3
2008-06-27 09:00:27 51°19.26 2°52.088 205.5 0.7 106 16.4
2008-06-27 09:00:32 51°19.26 2°52.09 204.3 0.7 105 16.3
2008-06-27 09:00:37 51°19.259 2°52.091 202.9 0.7 106 16.2
2008-06-27 09:00:43 51°19.259 2°52.093 201.5 0.7 109 16.1
2008-06-27 09:00:47 51°19.259 2°52.095 200.1 0.8 108 16.3
2008-06-27 09:00:52 51°19.258 2°52.096 199.1 0.8 110 16.2
2008-06-27 09:00:58 51°19.258 2°52.098 197.8 0.8 112 16.4
2008-06-27 09:01:03 51°19.258 2°52.099 196.6 0.6 115 16.2
2008-06-27 09:01:07 51°19.257 2°52.101 195.7 0.7 114 16.3
2008-06-27 09:01:12 51°19.257 2°52.102 195.1 0.7 116 16.2
2008-06-27 09:01:17 51°19.257 2°52.104 194.4 0.7 116 16.2
2008-06-27 09:01:22 51°19.256 2°52.106 194.1 0.8 115 16.2
2008-06-27 09:01:27 51°19.256 2°52.107 193.8 0.9 116 16.3
2008-06-27 09:01:32 51°19.255 2°52.108 193.6 0.7 121 16.3
2008-06-27 09:01:37 51°19.254 2°52.11 193.8 0.9 116 16.2
2008-06-27 09:01:42 51°19.254 2°52.112 194.1 0.8 119 16.3
2008-06-27 09:01:47 51°19.253 2°52.113 193.8 0.8 121 16.3
2008-06-27 09:01:52 51°19.253 2°52.115 193.9 0.6 122 16.3
2008-06-27 09:01:57 51°19.252 2°52.116 194.4 0.9 117 16.3
2008-06-27 09:02:02 51°19.251 2°52.118 195.3 0.8 124 16.5
2008-06-27 09:02:07 51°19.251 2°52.119 195.9 0.8 131 16.3
2008-06-27 09:02:12 51°19.25 2°52.121 195.9 0.8 130 16.1
2008-06-27 09:02:17 51°19.249 2°52.122 196.4 0.7 130 16.1
2008-06-27 09:02:22 51°19.249 2°52.124 197.2 0.9 124 16.1
2008-06-27 09:02:27 51°19.248 2°52.125 198.1 0.7 129 16.2
2008-06-27 09:02:32 51°19.247 2°52.126 198.9 0.8 129 16.2
2008-06-27 09:02:37 51°19.247 2°52.128 199.3 0.7 137 16.3
2008-06-27 09:02:42 51°19.246 2°52.129 199.9 0.8 137 16.3
2008-06-27 09:02:47 51°19.245 2°52.129 200.6 0.6 151 16.3
2008-06-27 09:02:52 51°19.245 2°52.131 201.5 0.8 133 16.2
2008-06-27 09:02:58 51°19.244 2°52.132 202.4 0.6 139 16.2
2008-06-27 09:03:03 51°19.243 2°52.133 203.4 0.8 133 16.2
2008-06-27 09:03:07 51°19.242 2°52.134 204.5 0.6 145 16.2
2008-06-27 09:03:12 51°19.242 2°52.134 205.6 0.6 144 16.1
2008-06-27 09:03:17 51°19.241 2°52.135 206.9 0.7 148 16.2
2008-06-27 09:03:23 51°19.24 2°52.136 208.3 0.7 145 16.2
2008-06-27 09:03:27 51°19.239 2°52.137 209.7 0.7 152 16.3
2008-06-27 09:03:32 51°19.239 2°52.137 210.3 0.5 161 16.2
2008-06-27 09:03:37 51°19.238 2°52.138 210.9 0.7 157 16.2
2008-06-27 09:03:42 51°19.237 2°52.139 211.9 0.6 162 15.9
2008-06-27 09:03:47 51°19.236 2°52.14 213 0.6 155 15.9
2008-06-27 09:03:52 51°19.235 2°52.141 213.6 0.7 149 15.9
2008-06-27 09:03:57 51°19.235 2°52.141 213.5 0.7 151 15.9
2008-06-27 09:04:02 51°19.234 2°52.142 214.1 0.7 148 15.9
2008-06-27 09:04:07 51°19.233 2°52.143 214.3 0.8 147 15.9
2008-06-27 09:04:12 51°19.233 2°52.144 214 0.6 152 16
2008-06-27 09:04:17 51°19.232 2°52.144 214.4 0.6 149 16.2
2008-06-27 09:04:22 51°19.231 2°52.145 214.9 0.5 161 16.2
2008-06-27 09:04:27 51°19.23 2°52.146 215.6 0.6 154 16.2
2008-06-27 09:04:32 51°19.23 2°52.147 215.9 0.6 154 16.2
2008-06-27 09:04:37 51°19.229 2°52.147 216.4 0.6 156 16.2
2008-06-27 09:04:42 51°19.228 2°52.148 217.1 0.6 158 16.2
2008-06-27 09:04:47 51°19.227 2°52.148 217.9 0.6 155 16.2
2008-06-27 09:04:52 51°19.227 2°52.149 219 0.7 150 16.1
2008-06-27 09:04:57 51°19.226 2°52.149 219.5 0.4 156 16.2
2008-06-27 09:05:03 51°19.225 2°52.15 220.2 0.6 149 16
2008-06-27 09:05:07 51°19.225 2°52.151 220.5 0.5 152 16
2008-06-27 09:05:12 51°19.224 2°52.152 221.1 0.7 148 16.1
2008-06-27 09:05:18 51°19.223 2°52.153 221.2 0.7 148 16.1
2008-06-27 09:05:23 51°19.222 2°52.153 221.3 0.8 152 15.9
2008-06-27 09:05:27 51°19.222 2°52.154 222.2 0.8 150 15.9
2008-06-27 09:05:32 51°19.221 2°52.155 222.8 0.6 149 16
2008-06-27 09:05:37 51°19.221 2°52.155 223.4 0.6 150 16
2008-06-27 09:05:42 51°19.22 2°52.156 224.2 0.5 151 16
2008-06-27 09:05:47 51°19.219 2°52.156 225.2 0.6 151 16.1
2008-06-27 09:05:52 51°19.218 2°52.157 225.9 0.6 157 16
2008-06-27 09:05:57 51°19.218 2°52.157 226.5 0.6 168 16
2008-06-27 09:06:02 51°19.217 2°52.158 227.4 0.8 162 15.9
2008-06-27 09:06:07 51°19.216 2°52.158 228 0.5 169 15.8
2008-06-27 09:06:12 51°19.216 2°52.158 228.7 0.4 160 15.8
2008-06-27 09:06:17 51°19.215 2°52.158 229.4 0.6 181 16
2008-06-27 09:06:22 51°19.214 2°52.158 230.2 0.9 188 15.9
2008-06-27 09:06:27 51°19.212 2°52.157 232.1 1 208 16.1
2008-06-27 09:06:32 51°19.211 2°52.155 233.7 1.3 214 16.2
2008-06-27 09:06:37 51°19.209 2°52.153 234.3 1.5 220 16.1
2008-06-27 09:06:42 51°19.207 2°52.151 233 1.6 215 16.2
2008-06-27 09:06:47 51°19.205 2°52.149 230 1.8 213 16.1
2008-06-27 09:06:52 51°19.203 2°52.147 225.6 2.1 209 16.2
2008-06-27 09:06:57 51°19.2 2°52.145 220.5 2.4 203 16.1
2008-06-27 09:07:02 51°19.196 2°52.143 214 2.7 195 16
2008-06-27 09:07:07 51°19.192 2°52.142 206.7 2.9 189 16.1
2008-06-27 09:07:12 51°19.188 2°52.142 198.8 3.2 180 16.1
2008-06-27 09:07:18 51°19.182 2°52.143 190.7 3.3 171 15.8